Time;durP1;ratioP1;P1;durP2;ratioP2;P2;SDS_P1;SDS_P2;PMS_P1;PMS_P2;Temp;Humidity;BMP_temperature;BMP_pressure;BME280_temperature;BME280_humidity;BME280_pressure;Samples;Min_cycle;Max_cycle;Signal;HPM_P1;HPM_P2
2023/01/04 00:00:35;;;;;;;9.63;3.42;;;;;;;7.14;100.00;101636.94;10574563;27;20046;-76
2023/01/04 00:05:36;;;;;;;9.48;4.43;;;;;;;7.10;100.00;101625.56;10562093;27;20059;-78
2023/01/04 00:10:36;;;;;;;12.00;4.20;;;;;;;7.04;100.00;101605.34;10564463;28;20051;-77
2023/01/04 00:15:36;;;;;;;8.35;4.03;;;;;;;6.51;100.00;101511.53;10563694;28;20044;-77
2023/01/04 00:20:37;;;;;;;7.68;3.88;;;;;;;7.07;100.00;101594.00;10579454;27;20600;-77
2023/01/04 00:25:38;;;;;;;7.20;3.88;;;;;;;7.13;100.00;101575.00;10547315;27;20032;-78
2023/01/04 00:30:38;;;;;;;15.15;5.18;;;;;;;7.18;100.00;101577.97;10563988;27;20032;-77
2023/01/04 00:35:39;;;;;;;5.13;3.50;;;;;;;7.19;100.00;101563.19;10562995;27;20073;-76
2023/01/04 00:40:39;;;;;;;11.23;4.60;;;;;;;7.18;100.00;101528.66;10544590;27;20027;-77
2023/01/04 00:45:42;;;;;;;9.57;4.45;;;;;;;7.23;100.00;101526.09;10578964;28;20035;-76
2023/01/04 00:50:44;;;;;;;5.68;3.80;;;;;;;7.27;100.00;101532.84;10562580;28;20040;-78
2023/01/04 00:55:44;;;;;;;10.13;3.53;;;;;;;7.15;100.00;101490.75;10565279;28;20035;-74
2023/01/04 01:00:45;;;;;;;6.93;3.35;;;;;;;7.23;100.00;101493.25;10554410;27;20032;-75
2023/01/04 01:05:45;;;;;;;8.80;4.40;;;;;;;7.23;100.00;101493.25;10588136;27;20038;-76
2023/01/04 01:10:46;;;;;;;11.25;4.68;;;;;;;7.14;100.00;101478.97;10572209;27;20055;-77
2023/01/04 01:15:46;;;;;;;11.23;4.75;;;;;;;7.04;100.00;101457.50;10544188;28;20060;-75
2023/01/04 01:20:47;;;;;;;11.73;6.28;;;;;;;6.97;100.00;101440.28;10544110;28;20031;-76
2023/01/04 01:25:47;;;;;;;7.97;5.10;;;;;;;6.94;100.00;101454.38;10545032;28;20055;-79
2023/01/04 01:30:48;;;;;;;9.23;5.00;;;;;;;6.96;100.00;101427.63;10544662;28;20039;-76
2023/01/04 01:35:48;;;;;;;7.20;4.68;;;;;;;7.03;100.00;101422.16;10527625;28;20036;-76
2023/01/04 01:40:48;;;;;;;7.80;5.53;;;;;;;7.03;100.00;101414.78;10550832;27;20059;-78
2023/01/04 01:45:51;;;;;;;9.10;5.47;;;;;;;7.03;100.00;101423.00;10584661;27;20047;-72
2023/01/04 01:51:01;;;;;;;7.32;4.85;;;;;;;7.06;100.00;101395.16;10585500;27;20114;-76
2023/01/04 01:56:04;;;;;;;6.35;5.50;;;;;;;7.01;100.00;101359.41;10603936;27;20566;-81
2023/01/04 02:01:04;;;;;;;11.75;6.15;;;;;;;6.97;100.00;101352.69;10602478;27;20036;-78
2023/01/04 02:06:07;;;;;;;8.93;5.93;;;;;;;6.95;100.00;101360.28;10586225;28;20031;-75
2023/01/04 02:11:08;;;;;;;7.97;6.32;;;;;;;6.99;100.00;101344.25;10584353;27;20039;-74
2023/01/04 02:16:29;;;;;;;11.80;7.10;;;;;;;6.89;100.00;101311.88;10532008;28;20044;-75
2023/01/04 02:22:05;;;;;;;9.18;7.10;;;;;;;6.97;100.00;101317.09;10578966;27;20084;-77
2023/01/04 02:27:45;;;;;;;7.75;6.97;;;;;;;6.94;100.00;101314.78;10496255;27;20416;-76
2023/01/04 02:33:08;;;;;;;9.35;8.02;;;;;;;6.96;100.00;101293.50;10553277;27;20040;-83
2023/01/04 02:38:22;;;;;;;11.82;8.63;;;;;;;6.94;100.00;101289.31;10585590;27;21433;-71
2023/01/04 02:54:32;;;;;;;8.35;7.63;;;;;;;6.98;100.00;101249.50;10540063;28;20036;-85
2023/01/04 02:59:39;;;;;;;8.73;7.38;;;;;;;7.00;100.00;101231.78;10524925;28;20032;-78
2023/01/04 03:10:46;;;;;;;8.10;7.35;;;;;;;7.12;100.00;101207.25;10540616;28;20032;-75
2023/01/04 03:15:56;;;;;;;11.25;8.40;;;;;;;7.18;100.00;101205.53;10520400;28;20096;-80
2023/01/04 03:20:57;;;;;;;7.88;7.07;;;;;;;7.20;100.00;101186.97;10514419;27;20043;-75
2023/01/04 03:37:17;;;;;;;9.05;8.35;;;;;;;7.26;100.00;101147.75;10540035;28;20036;-86
2023/01/04 03:48:32;;;;;;;8.93;8.20;;;;;;;7.44;100.00;101149.66;10538198;28;20061;-79
2023/01/04 03:53:34;;;;;;;8.63;7.93;;;;;;;7.51;100.00;101130.44;10539070;28;20032;-79
2023/01/04 03:58:35;;;;;;;8.80;8.20;;;;;;;7.56;100.00;101119.59;10538692;28;20036;-81
2023/01/04 04:08:54;;;;;;;8.43;7.82;;;;;;;7.68;100.00;101087.63;10539641;28;20103;-83
2023/01/04 04:13:55;;;;;;;8.05;7.50;;;;;;;7.86;100.00;101089.53;10541340;28;20056;-83
2023/01/04 04:18:55;;;;;;;8.60;8.10;;;;;;;7.98;100.00;101084.94;10538477;28;20032;-76
2023/01/04 04:23:56;;;;;;;9.40;8.75;;;;;;;8.09;100.00;101075.06;10538020;28;20063;-80
2023/01/04 04:28:56;;;;;;;10.70;9.95;;;;;;;8.18;100.00;101068.19;10538219;28;20036;-75
2023/01/04 04:33:57;;;;;;;10.07;9.48;;;;;;;8.28;100.00;101073.09;10521584;28;20044;-78
2023/01/04 04:38:57;;;;;;;10.80;10.20;;;;;;;8.37;100.00;101068.97;10542321;28;20519;-80
2023/01/04 04:43:58;;;;;;;11.02;10.43;;;;;;;8.45;100.00;101045.84;10558706;28;20051;-80
2023/01/04 04:48:58;;;;;;;10.95;10.20;;;;;;;8.51;100.00;101044.91;10504311;28;20032;-74
2023/01/04 04:53:59;;;;;;;11.02;10.32;;;;;;;8.57;100.00;101035.72;10520413;28;20054;-78
2023/01/04 04:58:59;;;;;;;11.77;10.98;;;;;;;8.63;100.00;101034.78;10520280;28;20074;-73
2023/01/04 05:04:00;;;;;;;10.68;9.98;;;;;;;8.63;100.00;101012.00;10538068;28;20089;-80
2023/01/04 05:09:00;;;;;;;10.35;9.75;;;;;;;8.82;100.00;101029.19;10521061;28;20058;-79
2023/01/04 05:14:01;;;;;;;10.15;9.63;;;;;;;8.91;100.00;101011.28;10532086;28;20038;-74
2023/01/04 05:19:01;;;;;;;10.43;9.82;;;;;;;8.92;100.00;100996.47;10561051;28;20050;-76
2023/01/04 05:24:02;;;;;;;10.40;9.70;;;;;;;9.06;100.00;101008.88;10577612;28;20079;-78
2023/01/04 05:29:02;;;;;;;10.07;9.57;;;;;;;9.16;100.00;100989.03;10561613;28;20035;-77
2023/01/04 05:34:03;;;;;;;11.15;10.45;;;;;;;9.18;100.00;100983.31;10562542;28;20039;-78
2023/01/04 05:39:03;;;;;;;11.38;10.68;;;;;;;9.28;100.00;100995.34;10561888;28;20028;-75
2023/01/04 05:44:04;;;;;;;11.32;10.65;;;;;;;9.33;100.00;101002.84;10566847;27;20534;-77
2023/01/04 05:49:04;;;;;;;11.88;10.98;;;;;;;9.37;100.00;100989.47;10585381;27;20095;-85
2023/01/04 05:54:05;;;;;;;11.77;11.07;;;;;;;9.39;100.00;100955.16;10564342;27;20407;-80
2023/01/04 05:59:05;;;;;;;11.30;10.60;;;;;;;9.54;100.00;100982.09;10526588;28;20039;-74
2023/01/04 06:04:06;;;;;;;12.60;11.55;;;;;;;9.36;100.00;100941.91;10560439;27;20051;-76
2023/01/04 06:09:06;;;;;;;11.70;11.00;;;;;;;9.67;100.00;100980.97;10551677;27;20040;-81
2023/01/04 06:14:07;;;;;;;12.50;11.50;;;;;;;9.73;100.00;100974.50;10568905;28;20035;-78
2023/01/04 06:19:07;;;;;;;12.68;11.88;;;;;;;9.74;100.00;100973.44;10565335;27;20043;-85
2023/01/04 06:24:09;;;;;;;13.13;12.23;;;;;;;9.70;100.00;100966.75;10583625;27;20038;-77
2023/01/04 06:29:10;;;;;;;13.48;12.65;;;;;;;9.70;100.00;100973.06;10534204;27;20043;-77
2023/01/04 06:34:11;;;;;;;12.95;12.05;;;;;;;9.69;100.00;100984.31;10585553;27;20044;-83
2023/01/04 06:39:11;;;;;;;14.65;13.60;;;;;;;9.70;100.00;101000.56;10567677;27;20031;-76
2023/01/04 06:44:12;;;;;;;13.38;12.27;;;;;;;9.74;100.00;101000.09;10549016;27;20081;-74
2023/01/04 06:49:13;;;;;;;13.13;12.25;;;;;;;9.78;100.00;101004.84;10566915;27;20040;-77
2023/01/04 06:54:13;;;;;;;11.48;10.60;;;;;;;9.80;100.00;100996.38;10582552;28;20051;-76
2023/01/04 06:59:14;;;;;;;12.60;11.80;;;;;;;9.81;100.00;100982.34;10584128;27;20476;-68
2023/01/04 07:04:14;;;;;;;12.13;11.15;;;;;;;9.86;100.00;100974.19;10568153;28;20039;-75
2023/01/04 07:09:15;;;;;;;10.82;10.15;;;;;;;9.89;100.00;100978.38;10583347;27;20039;-77
2023/01/04 07:14:15;;;;;;;11.25;10.65;;;;;;;9.88;100.00;100972.03;10564122;27;20048;-76
2023/01/04 07:19:16;;;;;;;10.82;10.30;;;;;;;9.94;100.00;100969.38;10565491;27;20059;-75
2023/01/04 07:24:16;;;;;;;11.57;10.88;;;;;;;9.93;100.00;100953.97;10548316;27;20035;-77
2023/01/04 07:29:17;;;;;;;11.75;11.05;;;;;;;9.88;100.00;100935.44;10548537;28;20044;-76
2023/01/04 07:34:19;;;;;;;12.32;11.63;;;;;;;9.96;100.00;100956.19;10566272;28;20269;-75
2023/01/04 07:39:19;;;;;;;11.80;11.00;;;;;;;9.95;100.00;100927.88;10564768;28;20027;-79
2023/01/04 07:44:20;;;;;;;11.45;10.85;;;;;;;9.96;100.00;100934.19;10563890;28;20036;-78
2023/01/04 07:49:21;;;;;;;11.02;10.43;;;;;;;9.95;100.00;100933.38;10583100;27;20432;-77
2023/01/04 07:54:23;;;;;;;11.18;10.57;;;;;;;9.98;100.00;100930.13;10563786;28;20031;-70
2023/01/04 07:59:23;;;;;;;11.13;10.52;;;;;;;10.02;100.00;100925.78;10581649;27;20032;-75
2023/01/04 08:04:24;;;;;;;11.77;11.07;;;;;;;9.94;100.00;100914.38;10582127;27;20126;-72
2023/01/04 08:09:24;;;;;;;11.68;10.98;;;;;;;10.00;100.00;100929.88;10564782;28;20035;-75
2023/01/04 08:14:25;;;;;;;11.95;11.27;;;;;;;10.03;100.00;100929.38;10563260;28;20046;-75
2023/01/04 08:19:25;;;;;;;12.13;11.25;;;;;;;10.03;100.00;100926.63;10582356;27;20051;-74
2023/01/04 08:24:26;;;;;;;11.38;10.57;;;;;;;10.06;100.00;100946.22;10563997;28;20459;-76
2023/01/04 08:29:26;;;;;;;11.38;10.77;;;;;;;10.09;100.00;100942.16;10580441;28;20107;-75
2023/01/04 08:34:28;;;;;;;11.13;10.50;;;;;;;10.05;100.00;100932.72;10583171;28;20036;-75
2023/01/04 08:39:32;;;;;;;11.73;10.88;;;;;;;10.12;100.00;100940.81;10534035;28;20048;-76
2023/01/04 08:44:35;;;;;;;10.70;10.20;;;;;;;10.15;100.00;100937.53;10554884;28;20133;-75
2023/01/04 08:49:35;;;;;;;10.75;10.10;;;;;;;10.14;100.00;100947.72;10539759;28;20044;-76
2023/01/04 08:54:36;;;;;;;11.25;10.55;;;;;;;10.17;100.00;100936.22;10521390;28;20039;-74
2023/01/04 08:59:36;;;;;;;10.65;10.10;;;;;;;10.17;100.00;100941.72;10538564;28;20035;-75
2023/01/04 09:04:37;;;;;;;11.40;10.70;;;;;;;10.17;100.00;100930.72;10554695;28;20036;-74
2023/01/04 09:09:37;;;;;;;12.40;11.60;;;;;;;10.20;100.00;100937.63;10553895;28;20099;-76
2023/01/04 09:14:38;;;;;;;12.95;12.18;;;;;;;10.21;100.00;100937.41;10537717;28;20036;-78
2023/01/04 09:19:38;;;;;;;12.73;12.02;;;;;;;10.26;100.00;100931.97;10545528;28;20032;-75
2023/01/04 09:24:39;;;;;;;12.07;11.48;;;;;;;10.20;100.00;100918.38;10547130;28;20028;-75
2023/01/04 09:29:40;;;;;;;12.52;11.82;;;;;;;10.28;100.00;100938.03;10545583;28;20089;-74
2023/01/04 09:34:41;;;;;;;11.68;11.00;;;;;;;10.27;100.00;100944.66;10546108;28;20099;-75
2023/01/04 09:39:41;;;;;;;11.57;10.93;;;;;;;10.26;100.00;100926.47;10564419;27;20039;-75
2023/01/04 09:44:46;;;;;;;12.18;11.45;;;;;;;10.32;100.00;100926.59;10552524;27;20032;-75
2023/01/04 09:49:56;;;;;;;10.88;10.35;;;;;;;10.32;100.00;100937.59;10595859;27;20036;-75
2023/01/04 09:55:00;;;;;;;10.82;10.30;;;;;;;10.32;100.00;100937.59;10586017;27;20047;-79
2023/01/04 10:00:25;;;;;;;11.70;11.10;;;;;;;10.21;100.00;100901.63;10568950;27;20058;-75
2023/01/04 10:05:27;;;;;;;11.02;10.43;;;;;;;10.34;100.00;100932.66;10578421;27;20035;-75
2023/01/04 10:11:10;;;;;;;11.00;10.40;;;;;;;10.30;100.00;100938.66;10580644;27;20483;-76
2023/01/04 10:16:13;;;;;;;11.45;10.85;;;;;;;10.41;100.00;100958.09;10523018;28;20063;-73
2023/01/04 10:21:19;;;;;;;12.45;11.75;;;;;;;10.45;100.00;100942.75;10546566;27;20195;-73
2023/01/04 10:26:29;;;;;;;15.07;13.93;;;;;;;10.56;100.00;100936.28;10565001;27;20416;-76
2023/01/04 10:31:35;;;;;;;14.75;13.32;;;;;;;10.63;100.00;100934.19;10580079;28;20290;-76
2023/01/04 10:36:36;;;;;;;16.40;15.10;;;;;;;10.77;100.00;100925.56;10551668;28;20040;-77
2023/01/04 10:41:39;;;;;;;17.23;15.90;;;;;;;10.83;100.00;100911.63;10566140;27;20383;-76
2023/01/04 10:46:43;;;;;;;16.98;15.27;;;;;;;10.88;100.00;100897.09;10567218;27;20044;-74
2023/01/04 10:51:52;;;;;;;17.05;15.38;;;;;;;11.00;100.00;100895.03;10581230;27;20036;-77
2023/01/04 10:57:00;;;;;;;16.38;15.07;;;;;;;11.03;100.00;100900.03;10524252;28;20101;-76
2023/01/04 11:02:31;;;;;;;17.55;15.65;;;;;;;11.08;100.00;100902.03;10540698;28;20073;-75
2023/01/04 11:07:45;;;;;;;19.23;14.93;;;;;;;11.09;100.00;100890.72;10523322;28;20036;-74
2023/01/04 11:12:46;;;;;;;17.73;14.10;;;;;;;11.12;100.00;100886.66;10524549;28;20054;-76
2023/01/04 11:17:46;;;;;;;25.45;14.55;;;;;;;11.16;100.00;100879.50;10523577;28;20547;-76
2023/01/04 11:23:13;;;;;;;46.65;15.82;;;;;;;11.22;100.00;100852.84;10542113;27;20040;-75
2023/01/04 11:28:41;;;;;;;23.10;12.83;;;;;;;11.24;100.00;100873.53;10541617;28;20046;-76
2023/01/04 11:34:01;;;;;;;26.58;13.07;;;;;;;11.24;100.00;100839.63;10553804;28;20065;-74
2023/01/04 11:39:02;;;;;;;21.42;13.60;;;;;;;11.39;100.00;100847.22;10580416;27;20036;-75
2023/01/04 11:44:04;;;;;;;22.10;13.90;;;;;;;11.28;100.00;100838.03;10564249;28;20043;-76
2023/01/04 11:49:04;;;;;;;27.60;16.55;;;;;;;11.26;100.00;100851.22;10563437;28;20085;-74
2023/01/04 11:54:14;;;;;;;31.05;14.65;;;;;;;11.23;100.00;100860.03;10562962;27;20038;-75
2023/01/04 11:59:15;;;;;;;30.65;15.10;;;;;;;11.26;100.00;100859.50;10581660;27;20047;-74
2023/01/04 12:04:23;;;;;;;19.40;12.93;;;;;;;11.27;100.00;100836.38;10564962;27;20074;-75
2023/01/04 12:09:23;;;;;;;28.77;14.20;;;;;;;11.29;100.00;100825.94;10580234;27;20066;-73
2023/01/04 12:14:25;;;;;;;24.80;13.50;;;;;;;11.28;100.00;100813.22;10544704;27;20046;-73
2023/01/04 12:19:26;;;;;;;24.27;13.05;;;;;;;11.32;100.00;100844.69;10524729;28;20673;-72
2023/01/04 12:24:31;;;;;;;22.23;12.63;;;;;;;11.34;100.00;100820.44;10560326;28;20503;-74
2023/01/04 12:29:52;;;;;;;19.73;11.82;;;;;;;11.34;100.00;100816.88;10542066;28;20042;-73
2023/01/04 12:34:53;;;;;;;17.80;11.10;;;;;;;11.41;100.00;100789.91;10557967;28;20043;-75
2023/01/04 12:39:53;;;;;;;19.50;10.60;;;;;;;11.16;100.00;100754.69;10555444;28;20082;-73
2023/01/04 12:44:56;;;;;;;14.10;10.15;;;;;;;11.39;100.00;100790.19;10542722;28;20035;-73
2023/01/04 12:49:56;;;;;;;14.38;8.90;;;;;;;11.40;100.00;100794.59;10543565;28;20067;-74
2023/01/04 12:54:59;;;;;;;16.05;8.10;;;;;;;11.45;100.00;100785.53;10552760;28;20048;-76
2023/01/04 13:00:13;;;;;;;13.45;7.97;;;;;;;11.46;100.00;100777.00;10544311;28;20062;-76
2023/01/04 13:05:16;;;;;;;13.25;7.85;;;;;;;11.50;100.00;100769.06;10562192;27;20096;-76
2023/01/04 13:10:19;;;;;;;11.57;7.53;;;;;;;11.49;100.00;100786.69;10543559;28;20047;-77
2023/01/04 13:15:46;;;;;;;14.32;6.47;;;;;;;11.39;100.00;100776.41;10571493;27;20052;-75
2023/01/04 13:20:47;;;;;;;12.70;7.70;;;;;;;11.44;100.00;100783.88;10563455;27;20043;-75
2023/01/04 13:25:47;;;;;;;9.15;6.53;;;;;;;11.41;100.00;100768.72;10555999;27;20040;-75
2023/01/04 13:30:48;;;;;;;11.57;7.18;;;;;;;11.12;100.00;100732.34;10562105;27;20333;-76
2023/01/04 13:36:09;;;;;;;9.95;6.57;;;;;;;11.39;100.00;100792.94;10579602;27;20035;-74
2023/01/04 13:41:18;;;;;;;8.70;6.78;;;;;;;11.33;100.00;100794.00;10544429;28;20040;-76
2023/01/04 13:46:22;;;;;;;12.15;6.47;;;;;;;11.36;100.00;100795.38;10523407;28;20036;-74
2023/01/04 13:51:24;;;;;;;16.27;7.35;;;;;;;11.27;100.00;100773.00;10540465;28;20047;-76
2023/01/04 13:56:26;;;;;;;14.05;6.90;;;;;;;11.34;100.00;100779.09;10556107;28;20059;-75
2023/01/04 14:01:36;;;;;;;18.00;7.22;;;;;;;11.28;100.00;100785.66;10551538;27;20054;-75
2023/01/04 14:06:43;;;;;;;15.00;6.15;;;;;;;11.27;100.00;100781.25;10567798;27;20042;-74
2023/01/04 14:11:57;;;;;;;19.08;7.20;;;;;;;11.22;100.00;100764.66;10585142;27;20034;-76
2023/01/04 14:17:25;;;;;;;19.15;6.32;;;;;;;11.35;100.00;100775.28;10570488;27;20039;-74
2023/01/04 14:22:25;;;;;;;29.85;6.53;;;;;;;11.31;100.00;100779.66;10590707;27;20173;-75
2023/01/04 14:27:41;;;;;;;25.65;6.60;;;;;;;11.22;100.00;100767.41;10563309;27;20040;-76
2023/01/04 14:32:54;;;;;;;21.80;6.73;;;;;;;11.26;100.00;100774.06;10557657;27;20035;-74
2023/01/04 14:38:01;;;;;;;23.02;6.22;;;;;;;10.82;100.00;100708.91;10577962;27;20043;-75
2023/01/04 14:43:01;;;;;;;28.75;6.82;;;;;;;11.29;100.00;100782.66;10563569;27;20027;-76
2023/01/04 14:48:02;;;;;;;22.60;5.65;;;;;;;11.25;100.00;100764.16;10563674;28;20036;-77
2023/01/04 14:53:02;;;;;;;21.05;5.72;;;;;;;11.27;100.00;100778.50;10580547;27;20044;-76
2023/01/04 14:58:03;;;;;;;19.80;6.18;;;;;;;11.27;100.00;100795.03;10581960;27;20032;-76
2023/01/04 15:03:03;;;;;;;16.67;5.03;;;;;;;11.23;100.00;100771.84;10579019;27;20040;-74
2023/01/04 15:08:04;;;;;;;22.23;5.30;;;;;;;11.17;100.00;100775.66;10540175;27;20373;-77
2023/01/04 15:13:04;;;;;;;20.83;5.60;;;;;;;11.13;100.00;100780.03;10552302;27;20620;-74
2023/01/04 15:18:05;;;;;;;28.98;6.55;;;;;;;11.13;100.00;100804.81;10561244;27;20032;-76
2023/01/04 15:23:06;;;;;;;24.55;6.05;;;;;;;11.10;100.00;100787.72;10538781;27;20043;-74
2023/01/04 15:28:07;;;;;;;24.23;5.28;;;;;;;11.02;100.00;100790.94;10562372;27;20042;-87
2023/01/04 15:33:07;;;;;;;21.95;5.75;;;;;;;11.02;100.00;100793.69;10578353;27;20208;-75
2023/01/04 15:38:07;;;;;;;27.10;8.13;;;;;;;10.83;100.00;100784.09;10564300;27;20541;-74
2023/01/04 15:43:09;;;;;;;19.70;6.00;;;;;;;10.85;100.00;100792.94;10565635;27;20040;-72
2023/01/04 15:48:10;;;;;;;25.30;8.13;;;;;;;10.72;100.00;100774.06;10559276;27;20054;-73
2023/01/04 15:53:11;;;;;;;31.05;9.20;;;;;;;10.68;100.00;100793.84;10524803;27;20104;-75
2023/01/04 15:58:12;;;;;;;27.55;7.25;;;;;;;10.69;100.00;100790.00;10559750;28;20042;-74
2023/01/04 16:03:12;;;;;;;18.92;6.63;;;;;;;10.67;100.00;100802.38;10551240;27;20035;-76
2023/01/04 16:08:13;;;;;;;24.50;8.35;;;;;;;10.74;100.00;100797.50;10582053;27;20023;-72
2023/01/04 16:13:13;;;;;;;28.40;7.65;;;;;;;10.73;100.00;100801.34;10575325;27;20043;-73
2023/01/04 16:18:14;;;;;;;21.08;6.25;;;;;;;10.75;100.00;100812.94;10527276;28;20385;-72
2023/01/04 16:23:14;;;;;;;18.00;6.72;;;;;;;10.72;100.00;100815.38;10540374;28;20052;-73
2023/01/04 16:28:15;;;;;;;18.50;6.35;;;;;;;10.65;100.00;100808.13;10541717;28;20082;-73
2023/01/04 16:33:15;;;;;;;21.50;6.05;;;;;;;10.63;100.00;100802.06;10560567;28;20487;-74
2023/01/04 16:38:16;;;;;;;25.25;7.07;;;;;;;10.73;100.00;100800.50;10560331;28;20051;-74
2023/01/04 16:43:16;;;;;;;26.75;5.93;;;;;;;10.72;100.00;100813.44;10559749;28;20055;-74
2023/01/04 16:48:17;;;;;;;17.67;5.65;;;;;;;10.65;100.00;100799.88;10541544;28;20487;-73
2023/01/04 16:53:17;;;;;;;24.63;7.40;;;;;;;10.54;100.00;100777.97;10540714;28;20431;-74
2023/01/04 16:58:18;;;;;;;21.67;6.75;;;;;;;10.53;100.00;100804.69;10574083;28;20789;-73
2023/01/04 17:03:18;;;;;;;27.95;6.80;;;;;;;10.50;100.00;100800.53;10547331;28;20056;-73
2023/01/04 17:08:19;;;;;;;19.83;7.55;;;;;;;10.35;100.00;100800.31;10522018;28;20028;-72
2023/01/04 17:13:19;;;;;;;31.30;7.78;;;;;;;10.32;100.00;100784.31;10520666;28;20044;-74
2023/01/04 17:18:21;;;;;;;22.15;7.35;;;;;;;10.35;100.00;100789.28;10538813;28;20051;-76
2023/01/04 17:23:22;;;;;;;22.83;6.97;;;;;;;10.32;100.00;100800.00;10536845;28;20127;-75
2023/01/04 17:28:22;;;;;;;22.35;7.55;;;;;;;10.35;100.00;100799.47;10531702;28;20038;-76
2023/01/04 17:33:23;;;;;;;18.90;7.53;;;;;;;10.40;100.00;100805.06;10538172;28;20039;-74
2023/01/04 17:38:23;;;;;;;21.67;7.80;;;;;;;10.25;100.00;100812.00;10581420;27;20098;-76
2023/01/04 17:43:24;;;;;;;28.52;9.02;;;;;;;10.15;100.00;100805.50;10568091;27;20051;-76
2023/01/04 17:48:24;;;;;;;31.50;11.55;;;;;;;10.21;100.00;100824.59;10587241;27;20036;-76
2023/01/04 17:53:24;;;;;;;33.63;10.65;;;;;;;10.16;100.00;100805.25;10587154;27;20050;-76
2023/01/04 17:58:25;;;;;;;30.60;11.00;;;;;;;10.05;100.00;100811.69;10568200;27;20047;-76
2023/01/04 18:03:26;;;;;;;24.52;10.13;;;;;;;10.13;100.00;100791.16;10556839;27;20109;-75
2023/01/04 18:08:26;;;;;;;29.50;11.75;;;;;;;10.18;100.00;100829.75;10562604;28;20028;-75
2023/01/04 18:13:26;;;;;;;23.10;9.85;;;;;;;10.12;100.00;100817.84;10586129;27;20038;-75
2023/01/04 18:18:27;;;;;;;27.02;12.65;;;;;;;9.93;100.00;100811.78;10585208;27;20032;-73
2023/01/04 18:23:28;;;;;;;24.50;12.60;;;;;;;9.78;100.00;100800.56;10567721;27;20062;-75
2023/01/04 18:28:28;;;;;;;32.85;14.68;;;;;;;9.89;100.00;100813.38;10585510;27;20439;-74
2023/01/04 18:33:29;;;;;;;39.72;15.70;;;;;;;9.85;100.00;100818.53;10563900;28;20040;-74
2023/01/04 18:38:29;;;;;;;37.60;15.85;;;;;;;9.78;100.00;100828.06;10579373;27;20036;-74
2023/01/04 18:43:30;;;;;;;37.95;15.10;;;;;;;9.79;100.00;100819.53;10506393;28;20047;-75
2023/01/04 18:48:30;;;;;;;26.20;13.68;;;;;;;9.77;100.00;100799.69;10543589;27;20492;-75
2023/01/04 18:53:31;;;;;;;28.95;13.43;;;;;;;9.72;100.00;100807.88;10584189;27;20027;-75
2023/01/04 18:58:31;;;;;;;47.00;15.45;;;;;;;9.56;100.00;100795.78;10582205;27;20042;-74
2023/01/04 19:03:34;;;;;;;21.42;11.25;;;;;;;9.69;100.00;100814.72;10548502;27;20032;-76
2023/01/04 19:08:35;;;;;;;24.05;10.80;;;;;;;9.65;100.00;100797.06;10540289;28;20036;-74
2023/01/04 19:13:36;;;;;;;19.08;8.85;;;;;;;9.57;100.00;100802.13;10555366;28;20555;-77
2023/01/04 19:18:37;;;;;;;26.75;8.57;;;;;;;9.53;100.00;100804.56;10547157;28;20091;-75
2023/01/04 19:23:37;;;;;;;28.50;8.95;;;;;;;9.58;100.00;100823.03;10564865;27;20043;-76
2023/01/04 19:28:38;;;;;;;21.70;10.45;;;;;;;9.59;100.00;100824.69;10562569;28;20051;-75
2023/01/04 19:33:38;;;;;;;37.47;12.35;;;;;;;9.41;100.00;100818.38;10559380;28;20051;-75
2023/01/04 19:38:39;;;;;;;32.13;10.70;;;;;;;9.47;100.00;100836.59;10547473;27;20437;-76
2023/01/04 19:43:39;;;;;;;30.42;11.23;;;;;;;9.46;100.00;100823.94;10581491;28;20040;-75
2023/01/04 19:48:40;;;;;;;31.20;10.82;;;;;;;9.48;100.00;100849.25;10580932;27;20035;-75
2023/01/04 19:53:41;;;;;;;28.50;11.30;;;;;;;9.57;100.00;100840.59;10547215;28;20104;-75
2023/01/04 19:58:41;;;;;;;30.48;9.68;;;;;;;9.61;100.00;100842.63;10580342;27;20388;-75
2023/01/04 20:03:42;;;;;;;31.67;11.55;;;;;;;9.60;100.00;100848.38;10563618;27;20034;-76
2023/01/04 20:08:43;;;;;;;28.75;11.77;;;;;;;9.65;100.00;100862.19;10547205;27;20059;-76
2023/01/04 20:13:43;;;;;;;33.13;12.82;;;;;;;9.58;100.00;100872.50;10562961;28;20415;-76
2023/01/04 20:18:44;;;;;;;30.40;11.38;;;;;;;9.56;100.00;100855.44;10569235;27;20044;-75
2023/01/04 20:23:44;;;;;;;24.50;11.18;;;;;;;9.52;100.00;100859.75;10578209;28;20027;-77
2023/01/04 20:28:45;;;;;;;33.20;13.20;;;;;;;9.56;100.00;100866.44;10578927;28;20114;-77
2023/01/04 20:33:46;;;;;;;25.63;11.88;;;;;;;9.54;100.00;100860.34;10563336;28;20082;-76
2023/01/04 20:38:47;;;;;;;29.45;12.15;;;;;;;9.60;100.00;100881.34;10539085;28;20036;-76
2023/01/04 20:43:47;;;;;;;31.77;12.20;;;;;;;9.55;100.00;100864.75;10580629;28;20032;-75
2023/01/04 20:48:48;;;;;;;29.92;11.90;;;;;;;9.38;100.00;100857.31;10544176;28;20111;-77
2023/01/04 20:53:48;;;;;;;25.40;12.80;;;;;;;9.53;100.00;100877.91;10559358;28;20077;-76
2023/01/04 20:58:49;;;;;;;29.42;12.98;;;;;;;9.50;100.00;100893.81;10535169;28;20051;-77
2023/01/04 21:03:49;;;;;;;30.48;13.10;;;;;;;9.51;100.00;100889.16;10547422;28;20036;-76
2023/01/04 21:08:53;;;;;;;29.73;12.07;;;;;;;9.54;100.00;100888.66;10560939;28;20028;-75
2023/01/04 21:13:53;;;;;;;35.05;14.10;;;;;;;9.46;100.00;100881.63;10561511;27;20559;-76
2023/01/04 21:18:54;;;;;;;37.78;13.88;;;;;;;9.43;100.00;100898.63;10552434;27;20036;-76
2023/01/04 21:23:54;;;;;;;27.83;12.20;;;;;;;9.49;100.00;100924.31;10585412;27;20116;-76
2023/01/04 21:28:55;;;;;;;34.63;12.95;;;;;;;9.47;100.00;100908.06;10553725;27;20051;-76
2023/01/04 21:33:56;;;;;;;30.98;14.05;;;;;;;9.43;100.00;100909.63;10545295;27;20039;-77
2023/01/04 21:38:58;;;;;;;34.85;13.18;;;;;;;9.19;100.00;100886.91;10586057;27;20058;-76
2023/01/04 21:44:00;;;;;;;27.60;13.38;;;;;;;9.36;100.00;100919.91;10564877;27;20052;-77
2023/01/04 21:49:00;;;;;;;24.90;12.73;;;;;;;9.42;100.00;100923.59;10568076;27;20072;-76
2023/01/04 21:54:01;;;;;;;27.52;14.07;;;;;;;9.36;100.00;100930.09;10566174;27;20118;-75
2023/01/04 21:59:01;;;;;;;42.90;14.10;;;;;;;9.37;100.00;100926.28;10568513;27;20032;-75
2023/01/04 22:04:02;;;;;;;27.58;11.52;;;;;;;9.32;100.00;100924.22;10551895;27;20038;-77
2023/01/04 22:09:04;;;;;;;27.80;12.05;;;;;;;9.34;100.00;100945.97;10550548;27;20046;-75
2023/01/04 22:14:04;;;;;;;28.50;13.48;;;;;;;9.35;100.00;100951.25;10567053;27;20032;-77
2023/01/04 22:19:05;;;;;;;31.23;13.80;;;;;;;9.33;100.00;100964.38;10583525;27;20044;-73
2023/01/04 22:24:06;;;;;;;34.20;13.63;;;;;;;9.27;100.00;100971.69;10563272;27;20031;-75
2023/01/04 22:29:07;;;;;;;33.85;14.73;;;;;;;9.25;100.00;100975.75;10579920;28;21475;-76
2023/01/04 22:34:08;;;;;;;51.05;17.13;;;;;;;9.20;100.00;100976.50;10504479;27;20035;-76
2023/01/04 22:39:09;;;;;;;29.40;13.85;;;;;;;9.08;100.00;100968.28;10580704;27;20039;-75
2023/01/04 22:44:09;;;;;;;37.33;13.85;;;;;;;9.17;100.00;100984.38;10544367;27;20095;-76
2023/01/04 22:49:10;;;;;;;37.13;14.82;;;;;;;9.17;100.00;100996.19;10545039;27;20061;-76
2023/01/04 22:54:12;;;;;;;35.75;13.48;;;;;;;8.68;100.00;100930.63;10580796;27;20084;-75
2023/01/04 22:59:12;;;;;;;43.65;14.88;;;;;;;9.04;100.00;101005.53;10563744;27;20042;-75
2023/01/04 23:04:14;;;;;;;31.05;13.57;;;;;;;9.02;100.00;101013.16;10536400;28;21006;-76
2023/01/04 23:09:16;;;;;;;33.83;14.50;;;;;;;9.03;100.00;101003.03;10577108;27;20490;-75
2023/01/04 23:14:16;;;;;;;32.95;14.25;;;;;;;8.98;100.00;101030.38;10563085;27;20551;-75
2023/01/04 23:19:17;;;;;;;40.67;15.57;;;;;;;8.91;100.00;101024.16;10556515;27;20039;-75